| time (UTC) | temp C | wind direction | speed KPH | gust KPH | rain 1hr cm | rain 24hr cm | rain mn cm | humidity % | barometer mb |
| 20260503184851 | 23 | 39 | 3.2 | 9.7 | 0.00 | 0.00 | 0.00 | 50 | 1012.5 |
| 20260503184350 | 22 | 38 | 4.8 | 9.7 | 0.00 | 0.00 | 0.00 | 50 | 1012.5 |
| 20260503183850 | 23 | 38 | 6.4 | 8.0 | 0.00 | 0.00 | 0.00 | 49 | 1012.5 |
| 20260503183318 | 23 | 32 | 4.8 | 8.0 | 0.00 | 0.00 | 0.00 | 48 | 1012.5 |
| 20260503182817 | 23 | 325 | 3.2 | 8.0 | 0.00 | 0.00 | 0.00 | 49 | 1012.5 |
| 20260503182244 | 22 | 19 | 3.2 | 9.7 | 0.00 | 0.00 | 0.00 | 50 | 1012.5 |
| 20260503181712 | 22 | 36 | 4.8 | 9.7 | 0.00 | 0.00 | 0.00 | 49 | 1012.5 |
| 20260503181211 | 22 | 24 | 4.8 | 9.7 | 0.00 | 0.00 | 0.00 | 50 | 1012.9 |
| 20260503180710 | 22 | 30 | 4.8 | 9.7 | 0.00 | 0.00 | 0.00 | 49 | 1012.9 |
| 20260503180209 | 22 | 33 | 6.4 | 9.7 | 0.00 | 0.00 | 0.00 | 50 | 1012.9 |
| 20260503175708 | 22 | 35 | 6.4 | 9.7 | 0.00 | 0.00 | 0.00 | 49 | 1012.9 |
| 20260503175207 | 22 | 38 | 3.2 | 9.7 | 0.00 | 0.00 | 0.00 | 50 | 1012.9 |
| 20260503174706 | 22 | 32 | 3.2 | 9.7 | 0.00 | 0.00 | 0.00 | 50 | 1012.9 |
| 20260503174206 | 21 | 41 | 4.8 | 9.7 | 0.00 | 0.00 | 0.00 | 51 | 1012.9 |
| 20260503173705 | 21 | 36 | 6.4 | 9.7 | 0.00 | 0.00 | 0.00 | 51 | 1012.9 |
| 20260503173204 | 21 | 38 | 8.0 | 9.7 | 0.00 | 0.00 | 0.00 | 51 | 1012.9 |
| 20260503172633 | 21 | 41 | 3.2 | 6.4 | 0.00 | 0.00 | 0.00 | 54 | 1012.9 |
| 20260503172131 | 21 | 40 | 3.2 | 6.4 | 0.00 | 0.00 | 0.00 | 56 | 1013.2 |
| 20260503171630 | 21 | 24 | 3.2 | 6.4 | 0.00 | 0.00 | 0.00 | 55 | 1013.2 |
| 20260503171129 | 20 | 31 | 3.2 | 6.4 | 0.00 | 0.00 | 0.00 | 56 | 1013.2 |
| 20260503170629 | 20 | 44 | 4.8 | 6.4 | 0.00 | 0.00 | 0.00 | 55 | 1013.2 |
| 20260503170128 | 20 | 33 | 4.8 | 6.4 | 0.00 | 0.00 | 0.00 | 58 | 1013.2 |
| 20260503151007 | 15 | 240 | 0.0 | 0.0 | 0.00 | 0.00 | 0.00 | 75 | 1013.5 |
| 20260503150435 | 14 | 240 | 0.0 | 0.0 | 0.00 | 0.00 | 0.00 | 78 | 1013.5 |
| 20260503140218 | 10 | 240 | 0.0 | 0.0 | 0.00 | 0.00 | 0.00 | 87 | 1013.5 |
| 20260503131138 | 9 | 240 | 0.0 | 0.0 | 0.00 | 0.00 | 0.00 | 87 | 1013.2 |
| 20260503130638 | 9 | 240 | 0.0 | 0.0 | 0.00 | 0.00 | 0.00 | 87 | 1013.2 |
| 20260503130136 | 9 | 240 | 0.0 | 0.0 | 0.00 | 0.00 | 0.00 | 87 | 1013.2 |
| 20260503120127 | 10 | 240 | 0.0 | 0.0 | 0.00 | 0.00 | 0.00 | 86 | 1013.5 |
| 20260503110445 | 10 | 240 | 0.0 | 0.0 | 0.00 | 0.00 | 0.00 | 84 | 1013.5 |
| 20260503090120 | 11 | 240 | 0.0 | 0.0 | 0.00 | 0.00 | 0.00 | 82 | 1013.5 |
| 20260503081507 | 12 | 240 | 0.0 | 0.0 | 0.00 | 0.00 | 0.00 | 79 | 1013.5 |
| 20260503081006 | 12 | 240 | 0.0 | 0.0 | 0.00 | 0.00 | 0.00 | 80 | 1013.5 |
| 20260503080434 | 12 | 240 | 0.0 | 0.0 | 0.00 | 0.00 | 0.00 | 80 | 1013.5 |
| 20260503072928 | 12 | 240 | 0.0 | 0.0 | 0.00 | 0.00 | 0.00 | 78 | 1013.5 |
| 20260503072427 | 12 | 240 | 0.0 | 0.0 | 0.00 | 0.00 | 0.00 | 77 | 1013.5 |
| 20260503071921 | 12 | 240 | 0.0 | 0.0 | 0.00 | 0.00 | 0.00 | 77 | 1013.5 |
| 20260503071420 | 12 | 240 | 0.0 | 0.0 | 0.00 | 0.00 | 0.00 | 77 | 1013.5 |
| 20260503070919 | 13 | 240 | 0.0 | 0.0 | 0.00 | 0.00 | 0.00 | 77 | 1013.5 |
| 20260503070418 | 13 | 240 | 0.0 | 0.0 | 0.00 | 0.00 | 0.00 | 76 | 1013.5 |
| 20260503054823 | 15 | 240 | 0.0 | 0.0 | 0.00 | 0.00 | 0.00 | 71 | 1013.2 |
| 20260503054323 | 15 | 240 | 0.0 | 0.0 | 0.00 | 0.00 | 0.00 | 70 | 1013.2 |
| 20260503053750 | 15 | 240 | 0.0 | 0.0 | 0.00 | 0.00 | 0.00 | 69 | 1013.5 |
| 20260503053250 | 15 | 240 | 0.0 | 0.0 | 0.00 | 0.00 | 0.00 | 69 | 1013.2 |
| 20260503052748 | 15 | 240 | 0.0 | 0.0 | 0.00 | 0.00 | 0.00 | 68 | 1013.2 |
| 20260503052217 | 15 | 240 | 0.0 | 0.0 | 0.00 | 0.00 | 0.00 | 68 | 1013.5 |
| 20260503051715 | 15 | 240 | 0.0 | 0.0 | 0.00 | 0.00 | 0.00 | 67 | 1013.2 |
| 20260503051215 | 16 | 240 | 0.0 | 0.0 | 0.00 | 0.00 | 0.00 | 66 | 1013.5 |
| 20260503050714 | 16 | 240 | 0.0 | 0.0 | 0.00 | 0.00 | 0.00 | 65 | 1013.2 |
| 20260503050213 | 16 | 240 | 0.0 | 0.0 | 0.00 | 0.00 | 0.00 | 65 | 1013.2 |
| 20260503045711 | 16 | 240 | 0.0 | 0.0 | 0.00 | 0.00 | 0.00 | 64 | 1013.2 |
| 20260503045210 | 16 | 240 | 0.0 | 0.0 | 0.00 | 0.00 | 0.00 | 64 | 1013.2 |
| 20260503044710 | 17 | 240 | 0.0 | 0.0 | 0.00 | 0.00 | 0.00 | 64 | 1013.2 |
| 20260503044138 | 17 | 240 | 0.0 | 0.0 | 0.00 | 0.00 | 0.00 | 61 | 1013.2 |
| 20260503043637 | 17 | 240 | 0.0 | 0.0 | 0.00 | 0.00 | 0.00 | 60 | 1013.2 |
| 20260503043137 | 17 | 240 | 0.0 | 0.0 | 0.00 | 0.00 | 0.00 | 59 | 1013.2 |
| 20260503042636 | 17 | 240 | 0.0 | 1.6 | 0.00 | 0.00 | 0.00 | 58 | 1013.2 |
| 20260503042135 | 17 | 240 | 0.0 | 1.6 | 0.00 | 0.00 | 0.00 | 57 | 1012.9 |
| 20260503041635 | 17 | 240 | 0.0 | 1.6 | 0.00 | 0.00 | 0.00 | 57 | 1012.9 |
| 20260503041134 | 18 | 240 | 0.0 | 1.6 | 0.00 | 0.00 | 0.00 | 57 | 1012.9 |
| 20260503040632 | 18 | 240 | 0.0 | 0.0 | 0.00 | 0.00 | 0.00 | 57 | 1012.9 |
| 20260503040132 | 18 | 240 | 0.0 | 0.0 | 0.00 | 0.00 | 0.00 | 58 | 1012.9 |
| 20260503035559 | 18 | 240 | 0.0 | 0.0 | 0.00 | 0.00 | 0.00 | 57 | 1012.5 |
| 20260503035027 | 18 | 240 | 0.0 | 1.6 | 0.00 | 0.00 | 0.00 | 57 | 1012.5 |
| 20260503034526 | 18 | 240 | 0.0 | 1.6 | 0.00 | 0.00 | 0.00 | 57 | 1012.5 |
| 20260503034026 | 19 | 240 | 0.0 | 1.6 | 0.00 | 0.00 | 0.00 | 56 | 1012.5 |
| 20260503033524 | 19 | 240 | 0.0 | 3.2 | 0.00 | 0.00 | 0.00 | 56 | 1012.2 |
| 20260503033024 | 19 | 240 | 0.0 | 3.2 | 0.00 | 0.00 | 0.00 | 56 | 1012.2 |
| 20260503032523 | 20 | 240 | 0.0 | 3.2 | 0.00 | 0.00 | 0.00 | 55 | 1012.2 |
| 20260503032022 | 20 | 236 | 1.6 | 3.2 | 0.00 | 0.00 | 0.00 | 54 | 1012.2 |
| 20260503031521 | 20 | 274 | 0.0 | 3.2 | 0.00 | 0.00 | 0.00 | 53 | 1012.2 |
| 20260503031020 | 20 | 274 | 0.0 | 3.2 | 0.00 | 0.00 | 0.00 | 53 | 1012.2 |
| 20260503030448 | 21 | 274 | 0.0 | 4.8 | 0.00 | 0.00 | 0.00 | 51 | 1012.2 |
| 20260503025916 | 21 | 274 | 0.0 | 9.7 | 0.00 | 0.00 | 0.00 | 49 | 1012.2 |
| 20260503025416 | 21 | 298 | 1.6 | 9.7 | 0.00 | 0.00 | 0.00 | 48 | 1011.9 |
| 20260503024914 | 22 | 273 | 3.2 | 9.7 | 0.00 | 0.00 | 0.00 | 48 | 1011.9 |
| 20260503024413 | 22 | 263 | 3.2 | 9.7 | 0.00 | 0.00 | 0.00 | 47 | 1011.9 |
| 20260503023913 | 22 | 339 | 0.0 | 9.7 | 0.00 | 0.00 | 0.00 | 48 | 1011.9 |
| 20260503023412 | 22 | 34 | 0.0 | 11.3 | 0.00 | 0.00 | 0.00 | 47 | 1011.9 |
| 20260503022911 | 22 | 279 | 4.8 | 11.3 | 0.00 | 0.00 | 0.00 | 47 | 1011.9 |
| 20260503022410 | 22 | 271 | 6.4 | 11.3 | 0.00 | 0.00 | 0.00 | 46 | 1011.9 |
| 20260503021909 | 23 | 288 | 6.4 | 11.3 | 0.00 | 0.00 | 0.00 | 47 | 1011.9 |
| 20260503021409 | 23 | 278 | 3.2 | 6.4 | 0.00 | 0.00 | 0.00 | 47 | 1011.9 |
| 20260503020908 | 23 | 316 | 3.2 | 9.7 | 0.00 | 0.00 | 0.00 | 47 | 1011.9 |
| 20260503020407 | 23 | 32 | 0.0 | 9.7 | 0.00 | 0.00 | 0.00 | 48 | 1011.9 |
| 20260503015906 | 23 | 34 | 1.6 | 9.7 | 0.00 | 0.00 | 0.00 | 47 | 1011.9 |
| 20260503015334 | 23 | 292 | 3.2 | 9.7 | 0.00 | 0.00 | 0.00 | 48 | 1011.9 |
| 20260503014802 | 23 | 293 | 3.2 | 8.0 | 0.00 | 0.00 | 0.00 | 48 | 1011.9 |
| 20260503014300 | 23 | 280 | 4.8 | 8.0 | 0.00 | 0.00 | 0.00 | 48 | 1011.9 |
| 20260503013759 | 23 | 66 | 0.0 | 9.7 | 0.00 | 0.00 | 0.00 | 49 | 1011.9 |
| 20260503013227 | 23 | 9 | 4.8 | 16.1 | 0.00 | 0.00 | 0.00 | 49 | 1011.9 |
| 20260503012655 | 23 | 277 | 4.8 | 16.1 | 0.00 | 0.00 | 0.00 | 48 | 1011.9 |
| 20260503012155 | 23 | 282 | 4.8 | 16.1 | 0.00 | 0.00 | 0.00 | 49 | 1011.9 |
| 20260503011654 | 23 | 290 | 6.4 | 12.9 | 0.00 | 0.00 | 0.00 | 49 | 1011.9 |
| 20260503011154 | 23 | 48 | 0.0 | 12.9 | 0.00 | 0.00 | 0.00 | 50 | 1011.9 |
| 20260503010622 | 23 | 6 | 1.6 | 12.9 | 0.00 | 0.00 | 0.00 | 50 | 1011.9 |
| 20260503010120 | 23 | 258 | 3.2 | 8.0 | 0.00 | 0.00 | 0.00 | 50 | 1011.9 |
| 20260503005619 | 23 | 281 | 4.8 | 11.3 | 0.00 | 0.00 | 0.00 | 50 | 1011.9 |
| 20260503005119 | 23 | 13 | 3.2 | 11.3 | 0.00 | 0.00 | 0.00 | 50 | 1012.2 |
| 20260503004618 | 23 | 357 | 3.2 | 11.3 | 0.00 | 0.00 | 0.00 | 50 | 1012.2 |
| 20260503004046 | 23 | 275 | 4.8 | 11.3 | 0.00 | 0.00 | 0.00 | 49 | 1012.2 |
| 20260503003545 | 23 | 281 | 4.8 | 12.9 | 0.00 | 0.00 | 0.00 | 49 | 1012.2 |
| 20260503003045 | 23 | 278 | 3.2 | 12.9 | 0.00 | 0.00 | 0.00 | 49 | 1012.2 |
| 20260503002544 | 23 | 263 | 3.2 | 12.9 | 0.00 | 0.00 | 0.00 | 49 | 1012.2 |
| 20260503002044 | 23 | 260 | 3.2 | 12.9 | 0.00 | 0.00 | 0.00 | 49 | 1012.2 |
| 20260503001543 | 23 | 264 | 3.2 | 9.7 | 0.00 | 0.00 | 0.00 | 49 | 1012.2 |
| 20260503001042 | 23 | 333 | 3.2 | 11.3 | 0.00 | 0.00 | 0.00 | 49 | 1012.2 |
| 20260503000541 | 23 | 343 | 3.2 | 11.3 | 0.00 | 0.00 | 0.00 | 48 | 1012.2 |
| 20260503000040 | 23 | 274 | 4.8 | 11.3 | 0.00 | 0.00 | 0.00 | 47 | 1012.2 |
| 20260502235539 | 23 | 331 | 4.8 | 11.3 | 0.00 | 0.00 | 0.00 | 48 | 1012.2 |
| 20260502235008 | 23 | 305 | 4.8 | 12.9 | 0.00 | 0.00 | 0.00 | 48 | 1012.2 |
| 20260502234436 | 23 | 13 | 1.6 | 12.9 | 0.00 | 0.00 | 0.00 | 49 | 1012.5 |
| 20260502233904 | 23 | 351 | 3.2 | 12.9 | 0.00 | 0.00 | 0.00 | 49 | 1012.5 |
| 20260502233403 | 23 | 288 | 6.4 | 12.9 | 0.00 | 0.00 | 0.00 | 50 | 1012.5 |
| 20260502232903 | 23 | 9 | 3.2 | 14.5 | 0.00 | 0.00 | 0.00 | 49 | 1012.5 |
| 20260502232402 | 23 | 352 | 3.2 | 14.5 | 0.00 | 0.00 | 0.00 | 49 | 1012.9 |
| 20260502231901 | 23 | 348 | 4.8 | 14.5 | 0.00 | 0.00 | 0.00 | 49 | 1012.9 |
| 20260502231400 | 23 | 291 | 3.2 | 14.5 | 0.00 | 0.00 | 0.00 | 50 | 1012.9 |
| 20260502230859 | 23 | 326 | 3.2 | 19.3 | 0.00 | 0.00 | 0.00 | 50 | 1012.9 |
| 20260502230358 | 23 | 299 | 3.2 | 19.3 | 0.00 | 0.00 | 0.00 | 50 | 1013.2 |
| 20260502225857 | 23 | 286 | 4.8 | 19.3 | 0.00 | 0.00 | 0.00 | 49 | 1013.2 |
| 20260502225356 | 23 | 273 | 8.0 | 19.3 | 0.00 | 0.00 | 0.00 | 48 | 1013.2 |
| 20260502224855 | 23 | 295 | 4.8 | 11.3 | 0.00 | 0.00 | 0.00 | 48 | 1013.2 |
| 20260502224323 | 23 | 282 | 4.8 | 11.3 | 0.00 | 0.00 | 0.00 | 48 | 1013.2 |
| 20260502223822 | 23 | 301 | 3.2 | 11.3 | 0.00 | 0.00 | 0.00 | 48 | 1013.2 |
| 20260502223250 | 23 | 44 | 3.2 | 11.3 | 0.00 | 0.00 | 0.00 | 48 | 1013.2 |
| 20260502222749 | 23 | 356 | 4.8 | 11.3 | 0.00 | 0.00 | 0.00 | 48 | 1013.5 |
| 20260502222247 | 23 | 16 | 4.8 | 11.3 | 0.00 | 0.00 | 0.00 | 48 | 1013.5 |
| 20260502221747 | 23 | 302 | 4.8 | 11.3 | 0.00 | 0.00 | 0.00 | 47 | 1013.5 |
| 20260502221246 | 23 | 274 | 6.4 | 11.3 | 0.00 | 0.00 | 0.00 | 47 | 1013.5 |
| 20260502220746 | 23 | 348 | 1.6 | 11.3 | 0.00 | 0.00 | 0.00 | 49 | 1013.5 |
| 20260502220245 | 23 | 272 | 3.2 | 11.3 | 0.00 | 0.00 | 0.00 | 48 | 1013.9 |
| 20260502215712 | 22 | 335 | 4.8 | 11.3 | 0.00 | 0.00 | 0.00 | 49 | 1013.9 |
| 20260502215141 | 22 | 278 | 6.4 | 11.3 | 0.00 | 0.00 | 0.00 | 50 | 1013.9 |
| 20260502214640 | 22 | 21 | 3.2 | 11.3 | 0.00 | 0.00 | 0.00 | 50 | 1013.9 |
| 20260502214139 | 22 | 356 | 3.2 | 11.3 | 0.00 | 0.00 | 0.00 | 52 | 1013.9 |
| 20260502213606 | 22 | 23 | 6.4 | 11.3 | 0.00 | 0.00 | 0.00 | 51 | 1014.2 |
| 20260502213105 | 22 | 351 | 4.8 | 11.3 | 0.00 | 0.00 | 0.00 | 51 | 1014.2 |
| 20260502212604 | 22 | 24 | 3.2 | 11.3 | 0.00 | 0.00 | 0.00 | 52 | 1014.2 |
| 20260502212032 | 22 | 39 | 4.8 | 11.3 | 0.00 | 0.00 | 0.00 | 54 | 1014.2 |
| 20260502211531 | 21 | 337 | 4.8 | 14.5 | 0.00 | 0.00 | 0.00 | 56 | 1014.2 |
| 20260502211000 | 21 | 32 | 4.8 | 14.5 | 0.00 | 0.00 | 0.00 | 58 | 1014.2 |
| 20260502210458 | 21 | 34 | 8.0 | 14.5 | 0.00 | 0.00 | 0.00 | 59 | 1014.2 |
| 20260502205957 | 21 | 34 | 8.0 | 14.5 | 0.00 | 0.00 | 0.00 | 60 | 1014.2 |
| 20260502205456 | 21 | 30 | 8.0 | 14.5 | 0.00 | 0.00 | 0.00 | 60 | 1014.2 |
| 20260502204955 | 20 | 33 | 6.4 | 14.5 | 0.00 | 0.00 | 0.00 | 61 | 1014.2 |
| 20260502204454 | 20 | 45 | 8.0 | 12.9 | 0.00 | 0.00 | 0.00 | 62 | 1014.6 |
| 20260502203954 | 20 | 28 | 6.4 | 11.3 | 0.00 | 0.00 | 0.00 | 61 | 1014.6 |
| 20260502203453 | 20 | 37 | 6.4 | 11.3 | 0.00 | 0.00 | 0.00 | 62 | 1014.6 |
| 20260502202953 | 20 | 30 | 6.4 | 11.3 | 0.00 | 0.00 | 0.00 | 62 | 1014.6 |
| 20260502202452 | 20 | 26 | 6.4 | 12.9 | 0.00 | 0.00 | 0.00 | 62 | 1014.6 |
| 20260502201920 | 20 | 35 | 6.4 | 12.9 | 0.00 | 0.00 | 0.00 | 62 | 1014.9 |
| 20260502201419 | 19 | 12 | 3.2 | 12.9 | 0.00 | 0.00 | 0.00 | 63 | 1014.9 |
| 20260502200847 | 19 | 36 | 6.4 | 12.9 | 0.00 | 0.00 | 0.00 | 63 | 1014.9 |
| 20260502200346 | 19 | 33 | 6.4 | 12.9 | 0.00 | 0.00 | 0.00 | 62 | 1014.9 |
| 20260502195845 | 19 | 40 | 6.4 | 12.9 | 0.00 | 0.00 | 0.00 | 63 | 1014.9 |
| 20260502195344 | 18 | 36 | 6.4 | 12.9 | 0.00 | 0.00 | 0.00 | 63 | 1015.2 |
| 20260502194812 | 19 | 39 | 8.0 | 12.9 | 0.00 | 0.00 | 0.00 | 64 | 1015.2 |
| 20260502194312 | 20 | 33 | 8.0 | 12.9 | 0.00 | 0.00 | 0.00 | 61 | 1015.2 |
| 20260502193740 | 20 | 315 | 1.6 | 8.0 | 0.00 | 0.00 | 0.00 | 62 | 1015.2 |
| 20260502193239 | 19 | 3 | 3.2 | 9.7 | 0.00 | 0.00 | 0.00 | 63 | 1015.2 |
| 20260502192737 | 18 | 17 | 4.8 | 12.9 | 0.00 | 0.00 | 0.00 | 64 | 1015.2 |
| 20260502192236 | 18 | 25 | 4.8 | 12.9 | 0.00 | 0.00 | 0.00 | 65 | 1015.6 |
| 20260502191735 | 18 | 35 | 8.0 | 12.9 | 0.00 | 0.00 | 0.00 | 65 | 1015.6 |
| 20260502191234 | 18 | 40 | 8.0 | 12.9 | 0.00 | 0.00 | 0.00 | 65 | 1015.6 |
| 20260502190732 | 18 | 33 | 3.2 | 11.3 | 0.00 | 0.00 | 0.00 | 67 | 1015.6 |
| 20260502190231 | 18 | 33 | 9.7 | 11.3 | 0.00 | 0.00 | 0.00 | 66 | 1015.6 |
| 20260502185731 | 18 | 34 | 6.4 | 11.3 | 0.00 | 0.00 | 0.00 | 68 | 1015.6 |
| 20260502185230 | 18 | 30 | 6.4 | 12.9 | 0.00 | 0.00 | 0.00 | 68 | 1015.6 |